<?xml version="1.0" encoding="utf-8"?>
<gpx xmlns:xsi="http://www.w3.org/2001/XMLSchema-instance" xmlns:xsd="http://www.w3.org/2001/XMLSchema" version="1.1" creator="Shapelink.com" xmlns="http://www.topografix.com/GPX/1/1" xmlns:gpxtpx="http://www.garmin.com/xmlschemas/TrackPointExtension/v1">
  <metadata>
    <name>Löpning 4.21 km, 2012-03-20</name>
    <desc></desc>
    <author><name>Alexander Engvall</name></author> 
    <time>2012-03-20T19:58:22Z</time>
  </metadata>
  <trk>
    <name>Löpning 4.21 km, 2012-03-20</name>
    <trkseg>
      <trkpt lat="59.4583806" lon="17.8044572">
        <ele>41.9547</ele>
        <time>2012-03-20T19:58:22Z</time>
      </trkpt>
      <trkpt lat="59.458278" lon="17.8044113">
        <ele>44.8386</ele>
        <time>2012-03-20T19:58:27Z</time>
      </trkpt>
      <trkpt lat="59.4581097" lon="17.8043333">
        <ele>51.0872</ele>
        <time>2012-03-20T19:58:32Z</time>
      </trkpt>
      <trkpt lat="59.4579464" lon="17.8043118">
        <ele>49.1646</ele>
        <time>2012-03-20T19:58:39Z</time>
      </trkpt>
      <trkpt lat="59.4578805" lon="17.804353">
        <ele>41.474</ele>
        <time>2012-03-20T19:58:44Z</time>
      </trkpt>
      <trkpt lat="59.4577725" lon="17.8044242">
        <ele>36.1868</ele>
        <time>2012-03-20T19:58:50Z</time>
      </trkpt>
      <trkpt lat="59.4577443" lon="17.8044247">
        <ele>36.6675</ele>
        <time>2012-03-20T19:58:51Z</time>
      </trkpt>
      <trkpt lat="59.4576117" lon="17.8046225">
        <ele>32.3416</ele>
        <time>2012-03-20T19:58:58Z</time>
      </trkpt>
      <trkpt lat="59.4575809" lon="17.8046785">
        <ele>28.9769</ele>
        <time>2012-03-20T19:59:00Z</time>
      </trkpt>
      <trkpt lat="59.4575088" lon="17.8047886">
        <ele>28.4962</ele>
        <time>2012-03-20T19:59:05Z</time>
      </trkpt>
      <trkpt lat="59.4573673" lon="17.804948">
        <ele>25.6123</ele>
        <time>2012-03-20T19:59:12Z</time>
      </trkpt>
      <trkpt lat="59.4572635" lon="17.8051234">
        <ele>24.651</ele>
        <time>2012-03-20T19:59:19Z</time>
      </trkpt>
      <trkpt lat="59.4572187" lon="17.8052197">
        <ele>24.1703</ele>
        <time>2012-03-20T19:59:25Z</time>
      </trkpt>
      <trkpt lat="59.4571463" lon="17.8053921">
        <ele>23.6896</ele>
        <time>2012-03-20T19:59:30Z</time>
      </trkpt>
      <trkpt lat="59.457054" lon="17.8055187">
        <ele>25.1317</ele>
        <time>2012-03-20T19:59:34Z</time>
      </trkpt>
      <trkpt lat="59.4568928" lon="17.8054784">
        <ele>25.1317</ele>
        <time>2012-03-20T19:59:40Z</time>
      </trkpt>
      <trkpt lat="59.456715" lon="17.8053556">
        <ele>24.651</ele>
        <time>2012-03-20T19:59:47Z</time>
      </trkpt>
      <trkpt lat="59.4565669" lon="17.8052465">
        <ele>23.209</ele>
        <time>2012-03-20T19:59:53Z</time>
      </trkpt>
      <trkpt lat="59.4564074" lon="17.8051137">
        <ele>22.7283</ele>
        <time>2012-03-20T20:00:00Z</time>
      </trkpt>
      <trkpt lat="59.4562517" lon="17.8050375">
        <ele>23.209</ele>
        <time>2012-03-20T20:00:06Z</time>
      </trkpt>
      <trkpt lat="59.4561095" lon="17.8049324">
        <ele>22.7283</ele>
        <time>2012-03-20T20:00:12Z</time>
      </trkpt>
      <trkpt lat="59.4559281" lon="17.8048318">
        <ele>23.6896</ele>
        <time>2012-03-20T20:00:19Z</time>
      </trkpt>
      <trkpt lat="59.4557802" lon="17.8047221">
        <ele>25.1317</ele>
        <time>2012-03-20T20:00:25Z</time>
      </trkpt>
      <trkpt lat="59.455632" lon="17.8046037">
        <ele>25.6123</ele>
        <time>2012-03-20T20:00:31Z</time>
      </trkpt>
      <trkpt lat="59.4555129" lon="17.8044977">
        <ele>25.6123</ele>
        <time>2012-03-20T20:00:36Z</time>
      </trkpt>
      <trkpt lat="59.4553542" lon="17.8044219">
        <ele>25.6123</ele>
        <time>2012-03-20T20:00:42Z</time>
      </trkpt>
      <trkpt lat="59.4552595" lon="17.8043559">
        <ele>25.1317</ele>
        <time>2012-03-20T20:00:46Z</time>
      </trkpt>
      <trkpt lat="59.4551294" lon="17.8043309">
        <ele>23.209</ele>
        <time>2012-03-20T20:00:51Z</time>
      </trkpt>
      <trkpt lat="59.4550254" lon="17.8043133">
        <ele>21.2864</ele>
        <time>2012-03-20T20:00:55Z</time>
      </trkpt>
      <trkpt lat="59.4548954" lon="17.8043433">
        <ele>20.325</ele>
        <time>2012-03-20T20:01:00Z</time>
      </trkpt>
      <trkpt lat="59.4547662" lon="17.804423">
        <ele>20.8057</ele>
        <time>2012-03-20T20:01:05Z</time>
      </trkpt>
      <trkpt lat="59.4546342" lon="17.8045511">
        <ele>21.2864</ele>
        <time>2012-03-20T20:01:10Z</time>
      </trkpt>
      <trkpt lat="59.4545197" lon="17.8046386">
        <ele>24.1703</ele>
        <time>2012-03-20T20:01:16Z</time>
      </trkpt>
      <trkpt lat="59.4545002" lon="17.8046306">
        <ele>24.1703</ele>
        <time>2012-03-20T20:01:17Z</time>
      </trkpt>
      <trkpt lat="59.4544996" lon="17.8044802">
        <ele>21.2864</ele>
        <time>2012-03-20T20:01:22Z</time>
      </trkpt>
      <trkpt lat="59.4545473" lon="17.8044189">
        <ele>20.8057</ele>
        <time>2012-03-20T20:01:24Z</time>
      </trkpt>
      <trkpt lat="59.4547214" lon="17.8042916">
        <ele>18.4023</ele>
        <time>2012-03-20T20:01:30Z</time>
      </trkpt>
      <trkpt lat="59.454867" lon="17.8041781">
        <ele>18.4023</ele>
        <time>2012-03-20T20:01:35Z</time>
      </trkpt>
      <trkpt lat="59.454976" lon="17.8039958">
        <ele>16.9604</ele>
        <time>2012-03-20T20:01:40Z</time>
      </trkpt>
      <trkpt lat="59.455013" lon="17.8037526">
        <ele>14.557</ele>
        <time>2012-03-20T20:01:45Z</time>
      </trkpt>
      <trkpt lat="59.4549829" lon="17.8035133">
        <ele>12.6344</ele>
        <time>2012-03-20T20:01:50Z</time>
      </trkpt>
      <trkpt lat="59.4549621" lon="17.8034369">
        <ele>12.1538</ele>
        <time>2012-03-20T20:01:52Z</time>
      </trkpt>
      <trkpt lat="59.454911" lon="17.8033751">
        <ele>11.1925</ele>
        <time>2012-03-20T20:01:55Z</time>
      </trkpt>
      <trkpt lat="59.4548258" lon="17.8030973">
        <ele>16.4797</ele>
        <time>2012-03-20T20:02:01Z</time>
      </trkpt>
      <trkpt lat="59.4548809" lon="17.8028888">
        <ele>17.9218</ele>
        <time>2012-03-20T20:02:05Z</time>
      </trkpt>
      <trkpt lat="59.4549595" lon="17.8027701">
        <ele>19.3638</ele>
        <time>2012-03-20T20:02:09Z</time>
      </trkpt>
      <trkpt lat="59.4551056" lon="17.8025987">
        <ele>22.2476</ele>
        <time>2012-03-20T20:02:16Z</time>
      </trkpt>
      <trkpt lat="59.4551855" lon="17.8024307">
        <ele>27.0543</ele>
        <time>2012-03-20T20:02:21Z</time>
      </trkpt>
      <trkpt lat="59.455273" lon="17.8023284">
        <ele>28.9769</ele>
        <time>2012-03-20T20:02:25Z</time>
      </trkpt>
      <trkpt lat="59.4554114" lon="17.8022711">
        <ele>26.0929</ele>
        <time>2012-03-20T20:02:30Z</time>
      </trkpt>
      <trkpt lat="59.4555186" lon="17.8022341">
        <ele>25.1317</ele>
        <time>2012-03-20T20:02:35Z</time>
      </trkpt>
      <trkpt lat="59.4556346" lon="17.8021692">
        <ele>24.651</ele>
        <time>2012-03-20T20:02:40Z</time>
      </trkpt>
      <trkpt lat="59.4557486" lon="17.8021205">
        <ele>23.6896</ele>
        <time>2012-03-20T20:02:45Z</time>
      </trkpt>
      <trkpt lat="59.4558549" lon="17.8020687">
        <ele>22.2476</ele>
        <time>2012-03-20T20:02:50Z</time>
      </trkpt>
      <trkpt lat="59.4560035" lon="17.8019537">
        <ele>20.8057</ele>
        <time>2012-03-20T20:02:56Z</time>
      </trkpt>
      <trkpt lat="59.4561035" lon="17.8018802">
        <ele>20.325</ele>
        <time>2012-03-20T20:03:01Z</time>
      </trkpt>
      <trkpt lat="59.4561448" lon="17.8018318">
        <ele>20.325</ele>
        <time>2012-03-20T20:03:03Z</time>
      </trkpt>
      <trkpt lat="59.4563118" lon="17.8016075">
        <ele>19.3638</ele>
        <time>2012-03-20T20:03:10Z</time>
      </trkpt>
      <trkpt lat="59.4564791" lon="17.8014025">
        <ele>18.8831</ele>
        <time>2012-03-20T20:03:17Z</time>
      </trkpt>
      <trkpt lat="59.4566048" lon="17.8012499">
        <ele>17.9218</ele>
        <time>2012-03-20T20:03:23Z</time>
      </trkpt>
      <trkpt lat="59.4567224" lon="17.8011716">
        <ele>17.9218</ele>
        <time>2012-03-20T20:03:28Z</time>
      </trkpt>
      <trkpt lat="59.4568233" lon="17.8011435">
        <ele>16.4797</ele>
        <time>2012-03-20T20:03:32Z</time>
      </trkpt>
      <trkpt lat="59.456974" lon="17.8011074">
        <ele>14.0764</ele>
        <time>2012-03-20T20:03:38Z</time>
      </trkpt>
      <trkpt lat="59.4570882" lon="17.8010513">
        <ele>14.0764</ele>
        <time>2012-03-20T20:03:43Z</time>
      </trkpt>
      <trkpt lat="59.4572217" lon="17.8010116">
        <ele>13.5958</ele>
        <time>2012-03-20T20:03:48Z</time>
      </trkpt>
      <trkpt lat="59.4573496" lon="17.8010141">
        <ele>12.1538</ele>
        <time>2012-03-20T20:03:54Z</time>
      </trkpt>
      <trkpt lat="59.4574621" lon="17.8009846">
        <ele>10.7118</ele>
        <time>2012-03-20T20:03:59Z</time>
      </trkpt>
      <trkpt lat="59.4576083" lon="17.8009688">
        <ele>9.75061</ele>
        <time>2012-03-20T20:04:05Z</time>
      </trkpt>
      <trkpt lat="59.4577757" lon="17.8009329">
        <ele>8.30859</ele>
        <time>2012-03-20T20:04:12Z</time>
      </trkpt>
      <trkpt lat="59.4578994" lon="17.8008702">
        <ele>8.78918</ele>
        <time>2012-03-20T20:04:18Z</time>
      </trkpt>
      <trkpt lat="59.4580253" lon="17.8007923">
        <ele>9.75061</ele>
        <time>2012-03-20T20:04:24Z</time>
      </trkpt>
      <trkpt lat="59.4581683" lon="17.8007322">
        <ele>9.2699</ele>
        <time>2012-03-20T20:04:30Z</time>
      </trkpt>
      <trkpt lat="59.4583086" lon="17.8006784">
        <ele>8.78918</ele>
        <time>2012-03-20T20:04:35Z</time>
      </trkpt>
      <trkpt lat="59.4584914" lon="17.8006314">
        <ele>7.82788</ele>
        <time>2012-03-20T20:04:42Z</time>
      </trkpt>
      <trkpt lat="59.4586509" lon="17.8006137">
        <ele>6.86646</ele>
        <time>2012-03-20T20:04:48Z</time>
      </trkpt>
      <trkpt lat="59.4588109" lon="17.8005554">
        <ele>8.30859</ele>
        <time>2012-03-20T20:04:55Z</time>
      </trkpt>
      <trkpt lat="59.4589357" lon="17.8004867">
        <ele>10.2312</ele>
        <time>2012-03-20T20:05:01Z</time>
      </trkpt>
      <trkpt lat="59.4590343" lon="17.800433">
        <ele>12.1538</ele>
        <time>2012-03-20T20:05:06Z</time>
      </trkpt>
      <trkpt lat="59.4591476" lon="17.8003671">
        <ele>16.4797</ele>
        <time>2012-03-20T20:05:12Z</time>
      </trkpt>
      <trkpt lat="59.4592482" lon="17.8003552">
        <ele>18.8831</ele>
        <time>2012-03-20T20:05:18Z</time>
      </trkpt>
      <trkpt lat="59.4593753" lon="17.8003392">
        <ele>17.9218</ele>
        <time>2012-03-20T20:05:23Z</time>
      </trkpt>
      <trkpt lat="59.4595278" lon="17.8002714">
        <ele>15.5184</ele>
        <time>2012-03-20T20:05:29Z</time>
      </trkpt>
      <trkpt lat="59.459669" lon="17.800236">
        <ele>12.6344</ele>
        <time>2012-03-20T20:05:34Z</time>
      </trkpt>
      <trkpt lat="59.459772" lon="17.800145">
        <ele>12.1538</ele>
        <time>2012-03-20T20:05:39Z</time>
      </trkpt>
      <trkpt lat="59.459958" lon="17.8000049">
        <ele>12.1538</ele>
        <time>2012-03-20T20:05:47Z</time>
      </trkpt>
      <trkpt lat="59.4601121" lon="17.7998755">
        <ele>11.6732</ele>
        <time>2012-03-20T20:05:53Z</time>
      </trkpt>
      <trkpt lat="59.4602219" lon="17.7997953">
        <ele>10.7118</ele>
        <time>2012-03-20T20:05:58Z</time>
      </trkpt>
      <trkpt lat="59.4603662" lon="17.7996952">
        <ele>9.75061</ele>
        <time>2012-03-20T20:06:05Z</time>
      </trkpt>
      <trkpt lat="59.4604792" lon="17.7995997">
        <ele>7.82788</ele>
        <time>2012-03-20T20:06:10Z</time>
      </trkpt>
      <trkpt lat="59.4606141" lon="17.7995288">
        <ele>7.34717</ele>
        <time>2012-03-20T20:06:16Z</time>
      </trkpt>
      <trkpt lat="59.4607721" lon="17.7994833">
        <ele>7.34717</ele>
        <time>2012-03-20T20:06:23Z</time>
      </trkpt>
      <trkpt lat="59.4608982" lon="17.7994664">
        <ele>6.38586</ele>
        <time>2012-03-20T20:06:28Z</time>
      </trkpt>
      <trkpt lat="59.4610166" lon="17.7994284">
        <ele>5.90527</ele>
        <time>2012-03-20T20:06:33Z</time>
      </trkpt>
      <trkpt lat="59.461182" lon="17.7994025">
        <ele>6.38586</ele>
        <time>2012-03-20T20:06:39Z</time>
      </trkpt>
      <trkpt lat="59.4613104" lon="17.7993894">
        <ele>6.86646</ele>
        <time>2012-03-20T20:06:44Z</time>
      </trkpt>
      <trkpt lat="59.4614222" lon="17.7993756">
        <ele>6.86646</ele>
        <time>2012-03-20T20:06:49Z</time>
      </trkpt>
      <trkpt lat="59.4615689" lon="17.7993646">
        <ele>4.94385</ele>
        <time>2012-03-20T20:06:55Z</time>
      </trkpt>
      <trkpt lat="59.4616944" lon="17.799345">
        <ele>3.98267</ele>
        <time>2012-03-20T20:07:00Z</time>
      </trkpt>
      <trkpt lat="59.4618521" lon="17.7993419">
        <ele>3.50195</ele>
        <time>2012-03-20T20:07:06Z</time>
      </trkpt>
      <trkpt lat="59.4620041" lon="17.7993791">
        <ele>3.98267</ele>
        <time>2012-03-20T20:07:12Z</time>
      </trkpt>
      <trkpt lat="59.4621781" lon="17.7994294">
        <ele>5.42456</ele>
        <time>2012-03-20T20:07:19Z</time>
      </trkpt>
      <trkpt lat="59.4622895" lon="17.7994518">
        <ele>5.90527</ele>
        <time>2012-03-20T20:07:24Z</time>
      </trkpt>
      <trkpt lat="59.4623324" lon="17.7994538">
        <ele>5.90527</ele>
        <time>2012-03-20T20:07:26Z</time>
      </trkpt>
      <trkpt lat="59.4624629" lon="17.799499">
        <ele>6.38586</ele>
        <time>2012-03-20T20:07:32Z</time>
      </trkpt>
      <trkpt lat="59.4625759" lon="17.799559">
        <ele>6.38586</ele>
        <time>2012-03-20T20:07:37Z</time>
      </trkpt>
      <trkpt lat="59.4627065" lon="17.7996375">
        <ele>5.90527</ele>
        <time>2012-03-20T20:07:43Z</time>
      </trkpt>
      <trkpt lat="59.4628152" lon="17.7997249">
        <ele>5.42456</ele>
        <time>2012-03-20T20:07:48Z</time>
      </trkpt>
      <trkpt lat="59.4629194" lon="17.7997624">
        <ele>6.38586</ele>
        <time>2012-03-20T20:07:53Z</time>
      </trkpt>
      <trkpt lat="59.4630392" lon="17.7998085">
        <ele>6.38586</ele>
        <time>2012-03-20T20:07:58Z</time>
      </trkpt>
      <trkpt lat="59.4631732" lon="17.799889">
        <ele>4.94385</ele>
        <time>2012-03-20T20:08:03Z</time>
      </trkpt>
      <trkpt lat="59.4632706" lon="17.7999287">
        <ele>3.98267</ele>
        <time>2012-03-20T20:08:08Z</time>
      </trkpt>
      <trkpt lat="59.4634147" lon="17.8000312">
        <ele>2.54065</ele>
        <time>2012-03-20T20:08:14Z</time>
      </trkpt>
      <trkpt lat="59.4635638" lon="17.8001076">
        <ele>1.57935</ele>
        <time>2012-03-20T20:08:20Z</time>
      </trkpt>
      <trkpt lat="59.4637119" lon="17.8001727">
        <ele>2.06006</ele>
        <time>2012-03-20T20:08:26Z</time>
      </trkpt>
      <trkpt lat="59.4638281" lon="17.8001759">
        <ele>3.98267</ele>
        <time>2012-03-20T20:08:31Z</time>
      </trkpt>
      <trkpt lat="59.4639658" lon="17.8002089">
        <ele>5.42456</ele>
        <time>2012-03-20T20:08:37Z</time>
      </trkpt>
      <trkpt lat="59.464104" lon="17.800275">
        <ele>7.82788</ele>
        <time>2012-03-20T20:08:43Z</time>
      </trkpt>
      <trkpt lat="59.4642211" lon="17.8003682">
        <ele>6.38586</ele>
        <time>2012-03-20T20:08:48Z</time>
      </trkpt>
      <trkpt lat="59.4643278" lon="17.8004822">
        <ele>5.90527</ele>
        <time>2012-03-20T20:08:53Z</time>
      </trkpt>
      <trkpt lat="59.4644092" lon="17.800579">
        <ele>4.46326</ele>
        <time>2012-03-20T20:08:58Z</time>
      </trkpt>
      <trkpt lat="59.4644877" lon="17.8006054">
        <ele>3.50195</ele>
        <time>2012-03-20T20:09:02Z</time>
      </trkpt>
      <trkpt lat="59.4645905" lon="17.800667">
        <ele>0.618042</ele>
        <time>2012-03-20T20:09:07Z</time>
      </trkpt>
      <trkpt lat="59.4646822" lon="17.8007524">
        <ele>0</ele>
        <time>2012-03-20T20:09:12Z</time>
      </trkpt>
      <trkpt lat="59.4648039" lon="17.8008284">
        <ele>0.618042</ele>
        <time>2012-03-20T20:09:17Z</time>
      </trkpt>
      <trkpt lat="59.4649666" lon="17.8008818">
        <ele>2.54065</ele>
        <time>2012-03-20T20:09:24Z</time>
      </trkpt>
      <trkpt lat="59.4650913" lon="17.8009094">
        <ele>0.618042</ele>
        <time>2012-03-20T20:09:30Z</time>
      </trkpt>
      <trkpt lat="59.4652028" lon="17.8009308">
        <ele>0.618042</ele>
        <time>2012-03-20T20:09:35Z</time>
      </trkpt>
      <trkpt lat="59.4652561" lon="17.8009531">
        <ele>1.09863</ele>
        <time>2012-03-20T20:09:37Z</time>
      </trkpt>
      <trkpt lat="59.4654148" lon="17.8009773">
        <ele>1.57935</ele>
        <time>2012-03-20T20:09:44Z</time>
      </trkpt>
      <trkpt lat="59.4655675" lon="17.8009675">
        <ele>1.09863</ele>
        <time>2012-03-20T20:09:50Z</time>
      </trkpt>
      <trkpt lat="59.4657157" lon="17.8009213">
        <ele>2.06006</ele>
        <time>2012-03-20T20:09:56Z</time>
      </trkpt>
      <trkpt lat="59.465858" lon="17.8009359">
        <ele>1.57935</ele>
        <time>2012-03-20T20:10:02Z</time>
      </trkpt>
      <trkpt lat="59.4660015" lon="17.8009732">
        <ele>3.50195</ele>
        <time>2012-03-20T20:10:08Z</time>
      </trkpt>
      <trkpt lat="59.4661067" lon="17.8009846">
        <ele>3.50195</ele>
        <time>2012-03-20T20:10:13Z</time>
      </trkpt>
      <trkpt lat="59.4662221" lon="17.8009902">
        <ele>4.46326</ele>
        <time>2012-03-20T20:10:18Z</time>
      </trkpt>
      <trkpt lat="59.4663627" lon="17.8009695">
        <ele>4.46326</ele>
        <time>2012-03-20T20:10:24Z</time>
      </trkpt>
      <trkpt lat="59.4664911" lon="17.8009618">
        <ele>4.46326</ele>
        <time>2012-03-20T20:10:30Z</time>
      </trkpt>
      <trkpt lat="59.4666449" lon="17.8009134">
        <ele>5.42456</ele>
        <time>2012-03-20T20:10:37Z</time>
      </trkpt>
      <trkpt lat="59.4667685" lon="17.8008758">
        <ele>5.90527</ele>
        <time>2012-03-20T20:10:42Z</time>
      </trkpt>
      <trkpt lat="59.4669024" lon="17.8008446">
        <ele>5.42456</ele>
        <time>2012-03-20T20:10:48Z</time>
      </trkpt>
      <trkpt lat="59.4670244" lon="17.8008001">
        <ele>6.38586</ele>
        <time>2012-03-20T20:10:54Z</time>
      </trkpt>
      <trkpt lat="59.4671856" lon="17.8007274">
        <ele>7.34717</ele>
        <time>2012-03-20T20:11:01Z</time>
      </trkpt>
      <trkpt lat="59.4673422" lon="17.8006608">
        <ele>9.2699</ele>
        <time>2012-03-20T20:11:07Z</time>
      </trkpt>
      <trkpt lat="59.4674738" lon="17.8005707">
        <ele>11.6732</ele>
        <time>2012-03-20T20:11:13Z</time>
      </trkpt>
      <trkpt lat="59.4675833" lon="17.8004945">
        <ele>12.1538</ele>
        <time>2012-03-20T20:11:18Z</time>
      </trkpt>
      <trkpt lat="59.4677395" lon="17.8003359">
        <ele>10.2312</ele>
        <time>2012-03-20T20:11:25Z</time>
      </trkpt>
      <trkpt lat="59.4678746" lon="17.8001846">
        <ele>8.78918</ele>
        <time>2012-03-20T20:11:31Z</time>
      </trkpt>
      <trkpt lat="59.4680124" lon="17.8000178">
        <ele>8.30859</ele>
        <time>2012-03-20T20:11:37Z</time>
      </trkpt>
      <trkpt lat="59.4681167" lon="17.7998535">
        <ele>7.34717</ele>
        <time>2012-03-20T20:11:42Z</time>
      </trkpt>
      <trkpt lat="59.4682419" lon="17.7996152">
        <ele>4.94385</ele>
        <time>2012-03-20T20:11:49Z</time>
      </trkpt>
      <trkpt lat="59.468369" lon="17.7994607">
        <ele>3.98267</ele>
        <time>2012-03-20T20:11:55Z</time>
      </trkpt>
      <trkpt lat="59.4685274" lon="17.7994388">
        <ele>3.02124</ele>
        <time>2012-03-20T20:12:01Z</time>
      </trkpt>
      <trkpt lat="59.4686785" lon="17.7994692">
        <ele>2.54065</ele>
        <time>2012-03-20T20:12:07Z</time>
      </trkpt>
      <trkpt lat="59.4688103" lon="17.799564">
        <ele>2.54065</ele>
        <time>2012-03-20T20:12:13Z</time>
      </trkpt>
      <trkpt lat="59.4689124" lon="17.7996896">
        <ele>2.54065</ele>
        <time>2012-03-20T20:12:18Z</time>
      </trkpt>
      <trkpt lat="59.4690251" lon="17.7998023">
        <ele>3.50195</ele>
        <time>2012-03-20T20:12:24Z</time>
      </trkpt>
      <trkpt lat="59.4691298" lon="17.79991">
        <ele>4.46326</ele>
        <time>2012-03-20T20:12:29Z</time>
      </trkpt>
      <trkpt lat="59.4692506" lon="17.8002097">
        <ele>0</ele>
        <time>2012-03-20T20:12:36Z</time>
      </trkpt>
      <trkpt lat="59.4692534" lon="17.8002573">
        <ele>0</ele>
        <time>2012-03-20T20:12:37Z</time>
      </trkpt>
      <trkpt lat="59.4693535" lon="17.8002987">
        <ele>1.09863</ele>
        <time>2012-03-20T20:12:42Z</time>
      </trkpt>
      <trkpt lat="59.4695028" lon="17.8003767">
        <ele>2.54065</ele>
        <time>2012-03-20T20:12:49Z</time>
      </trkpt>
      <trkpt lat="59.4695836" lon="17.8005897">
        <ele>1.57935</ele>
        <time>2012-03-20T20:12:55Z</time>
      </trkpt>
      <trkpt lat="59.469654" lon="17.8006789">
        <ele>1.57935</ele>
        <time>2012-03-20T20:12:59Z</time>
      </trkpt>
      <trkpt lat="59.4698094" lon="17.8006147">
        <ele>1.09863</ele>
        <time>2012-03-20T20:13:06Z</time>
      </trkpt>
      <trkpt lat="59.4699779" lon="17.8006862">
        <ele>1.57935</ele>
        <time>2012-03-20T20:13:13Z</time>
      </trkpt>
      <trkpt lat="59.470113" lon="17.8009089">
        <ele>2.54065</ele>
        <time>2012-03-20T20:13:20Z</time>
      </trkpt>
      <trkpt lat="59.4702005" lon="17.8010953">
        <ele>2.06006</ele>
        <time>2012-03-20T20:13:25Z</time>
      </trkpt>
      <trkpt lat="59.4703117" lon="17.8013119">
        <ele>1.57935</ele>
        <time>2012-03-20T20:13:31Z</time>
      </trkpt>
      <trkpt lat="59.4703943" lon="17.8015505">
        <ele>1.57935</ele>
        <time>2012-03-20T20:13:37Z</time>
      </trkpt>
      <trkpt lat="59.4704581" lon="17.801848">
        <ele>1.09863</ele>
        <time>2012-03-20T20:13:44Z</time>
      </trkpt>
      <trkpt lat="59.4705641" lon="17.8021387">
        <ele>2.06006</ele>
        <time>2012-03-20T20:13:52Z</time>
      </trkpt>
      <trkpt lat="59.4706792" lon="17.8023483">
        <ele>3.50195</ele>
        <time>2012-03-20T20:13:59Z</time>
      </trkpt>
      <trkpt lat="59.4707039" lon="17.8024175">
        <ele>3.98267</ele>
        <time>2012-03-20T20:14:01Z</time>
      </trkpt>
      <trkpt lat="59.4706762" lon="17.8026651">
        <ele>4.46326</ele>
        <time>2012-03-20T20:14:07Z</time>
      </trkpt>
      <trkpt lat="59.4706036" lon="17.8029084">
        <ele>6.38586</ele>
        <time>2012-03-20T20:14:14Z</time>
      </trkpt>
      <trkpt lat="59.4705485" lon="17.8030986">
        <ele>8.78918</ele>
        <time>2012-03-20T20:14:20Z</time>
      </trkpt>
      <trkpt lat="59.4704694" lon="17.8033176">
        <ele>7.34717</ele>
        <time>2012-03-20T20:14:26Z</time>
      </trkpt>
      <trkpt lat="59.4703927" lon="17.8035451">
        <ele>7.34717</ele>
        <time>2012-03-20T20:14:32Z</time>
      </trkpt>
      <trkpt lat="59.4702747" lon="17.803744">
        <ele>7.82788</ele>
        <time>2012-03-20T20:14:39Z</time>
      </trkpt>
      <trkpt lat="59.4701192" lon="17.8038709">
        <ele>10.7118</ele>
        <time>2012-03-20T20:14:47Z</time>
      </trkpt>
      <trkpt lat="59.4700193" lon="17.8039601">
        <ele>11.6732</ele>
        <time>2012-03-20T20:14:52Z</time>
      </trkpt>
      <trkpt lat="59.4699254" lon="17.8040101">
        <ele>15.0377</ele>
        <time>2012-03-20T20:14:57Z</time>
      </trkpt>
      <trkpt lat="59.4698364" lon="17.8039827">
        <ele>15.0377</ele>
        <time>2012-03-20T20:15:01Z</time>
      </trkpt>
      <trkpt lat="59.4697332" lon="17.8040588">
        <ele>15.999</ele>
        <time>2012-03-20T20:15:06Z</time>
      </trkpt>
      <trkpt lat="59.4696504" lon="17.804107">
        <ele>16.4797</ele>
        <time>2012-03-20T20:15:10Z</time>
      </trkpt>
      <trkpt lat="59.4695774" lon="17.8040553">
        <ele>17.4412</ele>
        <time>2012-03-20T20:15:14Z</time>
      </trkpt>
      <trkpt lat="59.4694879" lon="17.8038793">
        <ele>17.4412</ele>
        <time>2012-03-20T20:15:20Z</time>
      </trkpt>
      <trkpt lat="59.4694432" lon="17.8038291">
        <ele>17.4412</ele>
        <time>2012-03-20T20:15:23Z</time>
      </trkpt>
      <trkpt lat="59.469379" lon="17.8038904">
        <ele>16.9604</ele>
        <time>2012-03-20T20:15:27Z</time>
      </trkpt>
      <trkpt lat="59.4692184" lon="17.8040838">
        <ele>15.999</ele>
        <time>2012-03-20T20:15:35Z</time>
      </trkpt>
      <trkpt lat="59.4690589" lon="17.804279">
        <ele>15.0377</ele>
        <time>2012-03-20T20:15:43Z</time>
      </trkpt>
      <trkpt lat="59.4689462" lon="17.8045173">
        <ele>14.557</ele>
        <time>2012-03-20T20:15:50Z</time>
      </trkpt>
      <trkpt lat="59.4688932" lon="17.8047264">
        <ele>15.0377</ele>
        <time>2012-03-20T20:15:55Z</time>
      </trkpt>
      <trkpt lat="59.4688576" lon="17.8049364">
        <ele>15.5184</ele>
        <time>2012-03-20T20:16:00Z</time>
      </trkpt>
      <trkpt lat="59.4688173" lon="17.8051315">
        <ele>15.999</ele>
        <time>2012-03-20T20:16:05Z</time>
      </trkpt>
      <trkpt lat="59.4687698" lon="17.8053906">
        <ele>15.0377</ele>
        <time>2012-03-20T20:16:11Z</time>
      </trkpt>
      <trkpt lat="59.4687138" lon="17.8056819">
        <ele>15.0377</ele>
        <time>2012-03-20T20:16:18Z</time>
      </trkpt>
      <trkpt lat="59.4686639" lon="17.8058781">
        <ele>15.999</ele>
        <time>2012-03-20T20:16:23Z</time>
      </trkpt>
      <trkpt lat="59.4686169" lon="17.8060689">
        <ele>16.4797</ele>
        <time>2012-03-20T20:16:28Z</time>
      </trkpt>
      <trkpt lat="59.4685522" lon="17.8063589">
        <ele>17.4412</ele>
        <time>2012-03-20T20:16:35Z</time>
      </trkpt>
      <trkpt lat="59.4685035" lon="17.8065915">
        <ele>17.9218</ele>
        <time>2012-03-20T20:16:41Z</time>
      </trkpt>
      <trkpt lat="59.4684517" lon="17.8068615">
        <ele>21.2864</ele>
        <time>2012-03-20T20:16:48Z</time>
      </trkpt>
      <trkpt lat="59.4684321" lon="17.8071179">
        <ele>21.2864</ele>
        <time>2012-03-20T20:16:54Z</time>
      </trkpt>
      <trkpt lat="59.4684217" lon="17.8072011">
        <ele>21.2864</ele>
        <time>2012-03-20T20:16:56Z</time>
      </trkpt>
      <trkpt lat="59.4683293" lon="17.8073084">
        <ele>21.2864</ele>
        <time>2012-03-20T20:17:01Z</time>
      </trkpt>
      <trkpt lat="59.4683082" lon="17.807322">
        <ele>21.2864</ele>
        <time>2012-03-20T20:17:02Z</time>
      </trkpt>
      <trkpt lat="59.4681742" lon="17.8073815">
        <ele>20.8057</ele>
        <time>2012-03-20T20:17:08Z</time>
      </trkpt>
      <trkpt lat="59.4680336" lon="17.807484">
        <ele>19.3638</ele>
        <time>2012-03-20T20:17:14Z</time>
      </trkpt>
      <trkpt lat="59.4679093" lon="17.8075779">
        <ele>17.9218</ele>
        <time>2012-03-20T20:17:19Z</time>
      </trkpt>
      <trkpt lat="59.4677766" lon="17.8076672">
        <ele>18.4023</ele>
        <time>2012-03-20T20:17:25Z</time>
      </trkpt>
      <trkpt lat="59.4676479" lon="17.8078005">
        <ele>16.4797</ele>
        <time>2012-03-20T20:17:30Z</time>
      </trkpt>
      <trkpt lat="59.4675508" lon="17.8079252">
        <ele>16.9604</ele>
        <time>2012-03-20T20:17:35Z</time>
      </trkpt>
      <trkpt lat="59.4674569" lon="17.808076">
        <ele>17.4412</ele>
        <time>2012-03-20T20:17:40Z</time>
      </trkpt>
      <trkpt lat="59.4673306" lon="17.8082235">
        <ele>19.8444</ele>
        <time>2012-03-20T20:17:46Z</time>
      </trkpt>
      <trkpt lat="59.4672299" lon="17.8083427">
        <ele>22.2476</ele>
        <time>2012-03-20T20:17:51Z</time>
      </trkpt>
      <trkpt lat="59.4671285" lon="17.8084872">
        <ele>24.651</ele>
        <time>2012-03-20T20:17:57Z</time>
      </trkpt>
      <trkpt lat="59.4670255" lon="17.8085988">
        <ele>27.0543</ele>
        <time>2012-03-20T20:18:03Z</time>
      </trkpt>
      <trkpt lat="59.4669227" lon="17.8087472">
        <ele>27.5349</ele>
        <time>2012-03-20T20:18:08Z</time>
      </trkpt>
      <trkpt lat="59.4668458" lon="17.8088146">
        <ele>29.4575</ele>
        <time>2012-03-20T20:18:12Z</time>
      </trkpt>
      <trkpt lat="59.4667211" lon="17.8089277">
        <ele>29.4575</ele>
        <time>2012-03-20T20:18:18Z</time>
      </trkpt>
      <trkpt lat="59.4666362" lon="17.808994">
        <ele>31.8607</ele>
        <time>2012-03-20T20:18:22Z</time>
      </trkpt>
      <trkpt lat="59.4664696" lon="17.8090489">
        <ele>33.7834</ele>
        <time>2012-03-20T20:18:29Z</time>
      </trkpt>
      <trkpt lat="59.4663487" lon="17.8090873">
        <ele>34.7449</ele>
        <time>2012-03-20T20:18:34Z</time>
      </trkpt>
      <trkpt lat="59.4663118" lon="17.8090729">
        <ele>34.2642</ele>
        <time>2012-03-20T20:18:36Z</time>
      </trkpt>
      <trkpt lat="59.4661518" lon="17.8090681">
        <ele>29.9381</ele>
        <time>2012-03-20T20:18:42Z</time>
      </trkpt>
      <trkpt lat="59.466028" lon="17.8089816">
        <ele>27.0543</ele>
        <time>2012-03-20T20:18:47Z</time>
      </trkpt>
      <trkpt lat="59.4658871" lon="17.8088916">
        <ele>26.5736</ele>
        <time>2012-03-20T20:18:53Z</time>
      </trkpt>
      <trkpt lat="59.4657533" lon="17.808865">
        <ele>27.5349</ele>
        <time>2012-03-20T20:18:58Z</time>
      </trkpt>
      <trkpt lat="59.4655571" lon="17.8088386">
        <ele>27.5349</ele>
        <time>2012-03-20T20:19:05Z</time>
      </trkpt>
      <trkpt lat="59.4654194" lon="17.8088146">
        <ele>27.5349</ele>
        <time>2012-03-20T20:19:10Z</time>
      </trkpt>
      <trkpt lat="59.4652405" lon="17.8087364">
        <ele>27.5349</ele>
        <time>2012-03-20T20:19:17Z</time>
      </trkpt>
      <trkpt lat="59.4651475" lon="17.8086024">
        <ele>28.4962</ele>
        <time>2012-03-20T20:19:22Z</time>
      </trkpt>
      <trkpt lat="59.4650188" lon="17.8084413">
        <ele>29.4575</ele>
        <time>2012-03-20T20:19:29Z</time>
      </trkpt>
      <trkpt lat="59.4648847" lon="17.8084131">
        <ele>27.5349</ele>
        <time>2012-03-20T20:19:35Z</time>
      </trkpt>
      <trkpt lat="59.4647671" lon="17.8084242">
        <ele>26.5736</ele>
        <time>2012-03-20T20:19:39Z</time>
      </trkpt>
      <trkpt lat="59.4646122" lon="17.8084352">
        <ele>25.6123</ele>
        <time>2012-03-20T20:19:45Z</time>
      </trkpt>
      <trkpt lat="59.4644598" lon="17.8083655">
        <ele>25.1317</ele>
        <time>2012-03-20T20:19:51Z</time>
      </trkpt>
      <trkpt lat="59.4642931" lon="17.8082725">
        <ele>24.651</ele>
        <time>2012-03-20T20:19:57Z</time>
      </trkpt>
      <trkpt lat="59.4641564" lon="17.8081466">
        <ele>26.0929</ele>
        <time>2012-03-20T20:20:03Z</time>
      </trkpt>
      <trkpt lat="59.4640062" lon="17.8080659">
        <ele>26.0929</ele>
        <time>2012-03-20T20:20:09Z</time>
      </trkpt>
      <trkpt lat="59.463902" lon="17.8080137">
        <ele>26.5736</ele>
        <time>2012-03-20T20:20:13Z</time>
      </trkpt>
      <trkpt lat="59.4638159" lon="17.8079051">
        <ele>28.0155</ele>
        <time>2012-03-20T20:20:17Z</time>
      </trkpt>
      <trkpt lat="59.4636708" lon="17.807775">
        <ele>27.5349</ele>
        <time>2012-03-20T20:20:23Z</time>
      </trkpt>
      <trkpt lat="59.4636306" lon="17.8077421">
        <ele>27.5349</ele>
        <time>2012-03-20T20:20:25Z</time>
      </trkpt>
      <trkpt lat="59.4635059" lon="17.8076295">
        <ele>28.0155</ele>
        <time>2012-03-20T20:20:31Z</time>
      </trkpt>
      <trkpt lat="59.463445" lon="17.8075617">
        <ele>28.4962</ele>
        <time>2012-03-20T20:20:34Z</time>
      </trkpt>
      <trkpt lat="59.4633316" lon="17.8074652">
        <ele>28.9769</ele>
        <time>2012-03-20T20:20:39Z</time>
      </trkpt>
      <trkpt lat="59.4631787" lon="17.807253">
        <ele>28.4962</ele>
        <time>2012-03-20T20:20:47Z</time>
      </trkpt>
      <trkpt lat="59.4630819" lon="17.8070598">
        <ele>29.4575</ele>
        <time>2012-03-20T20:20:53Z</time>
      </trkpt>
      <trkpt lat="59.4630047" lon="17.8069262">
        <ele>31.8607</ele>
        <time>2012-03-20T20:20:58Z</time>
      </trkpt>
      <trkpt lat="59.462893" lon="17.8067718">
        <ele>33.3029</ele>
        <time>2012-03-20T20:21:04Z</time>
      </trkpt>
      <trkpt lat="59.4627438" lon="17.8067042">
        <ele>32.3416</ele>
        <time>2012-03-20T20:21:10Z</time>
      </trkpt>
      <trkpt lat="59.4625895" lon="17.8067514">
        <ele>31.3801</ele>
        <time>2012-03-20T20:21:16Z</time>
      </trkpt>
      <trkpt lat="59.4624283" lon="17.8068057">
        <ele>29.9381</ele>
        <time>2012-03-20T20:21:22Z</time>
      </trkpt>
      <trkpt lat="59.4622988" lon="17.8068092">
        <ele>28.4962</ele>
        <time>2012-03-20T20:21:27Z</time>
      </trkpt>
      <trkpt lat="59.4621888" lon="17.8068006">
        <ele>28.9769</ele>
        <time>2012-03-20T20:21:32Z</time>
      </trkpt>
      <trkpt lat="59.4621464" lon="17.8067935">
        <ele>28.9769</ele>
        <time>2012-03-20T20:21:34Z</time>
      </trkpt>
      <trkpt lat="59.4620093" lon="17.806824">
        <ele>28.9769</ele>
        <time>2012-03-20T20:21:40Z</time>
      </trkpt>
      <trkpt lat="59.4618306" lon="17.8068718">
        <ele>28.0155</ele>
        <time>2012-03-20T20:21:47Z</time>
      </trkpt>
      <trkpt lat="59.4616968" lon="17.8068351">
        <ele>26.5736</ele>
        <time>2012-03-20T20:21:53Z</time>
      </trkpt>
      <trkpt lat="59.4616772" lon="17.8068091">
        <ele>27.0543</ele>
        <time>2012-03-20T20:21:54Z</time>
      </trkpt>
      <trkpt lat="59.4615928" lon="17.8065314">
        <ele>29.4575</ele>
        <time>2012-03-20T20:22:01Z</time>
      </trkpt>
      <trkpt lat="59.4614952" lon="17.8063584">
        <ele>31.3801</ele>
        <time>2012-03-20T20:22:07Z</time>
      </trkpt>
      <trkpt lat="59.4613802" lon="17.8063556">
        <ele>33.3029</ele>
        <time>2012-03-20T20:22:12Z</time>
      </trkpt>
      <trkpt lat="59.4612289" lon="17.8064087">
        <ele>34.2642</ele>
        <time>2012-03-20T20:22:18Z</time>
      </trkpt>
      <trkpt lat="59.4611034" lon="17.8064646">
        <ele>34.2642</ele>
        <time>2012-03-20T20:22:23Z</time>
      </trkpt>
      <trkpt lat="59.4609883" lon="17.80648">
        <ele>36.1868</ele>
        <time>2012-03-20T20:22:28Z</time>
      </trkpt>
      <trkpt lat="59.4608753" lon="17.8064797">
        <ele>38.1094</ele>
        <time>2012-03-20T20:22:33Z</time>
      </trkpt>
      <trkpt lat="59.4607285" lon="17.8065208">
        <ele>40.0321</ele>
        <time>2012-03-20T20:22:39Z</time>
      </trkpt>
      <trkpt lat="59.460608" lon="17.8065489">
        <ele>46.2806</ele>
        <time>2012-03-20T20:22:45Z</time>
      </trkpt>
      <trkpt lat="59.46045" lon="17.8065418">
        <ele>49.1646</ele>
        <time>2012-03-20T20:22:52Z</time>
      </trkpt>
      <trkpt lat="59.4602552" lon="17.8065101">
        <ele>47.7225</ele>
        <time>2012-03-20T20:23:00Z</time>
      </trkpt>
      <trkpt lat="59.4601044" lon="17.8064931">
        <ele>46.2806</ele>
        <time>2012-03-20T20:23:06Z</time>
      </trkpt>
      <trkpt lat="59.459973" lon="17.8064906">
        <ele>42.916</ele>
        <time>2012-03-20T20:23:11Z</time>
      </trkpt>
      <trkpt lat="59.4598228" lon="17.8064733">
        <ele>40.5128</ele>
        <time>2012-03-20T20:23:17Z</time>
      </trkpt>
      <trkpt lat="59.4596783" lon="17.8064459">
        <ele>38.1094</ele>
        <time>2012-03-20T20:23:23Z</time>
      </trkpt>
      <trkpt lat="59.4595565" lon="17.8064267">
        <ele>35.7061</ele>
        <time>2012-03-20T20:23:28Z</time>
      </trkpt>
      <trkpt lat="59.4594659" lon="17.8063766">
        <ele>34.2642</ele>
        <time>2012-03-20T20:23:32Z</time>
      </trkpt>
      <trkpt lat="59.4594399" lon="17.8063709">
        <ele>33.3029</ele>
        <time>2012-03-20T20:23:33Z</time>
      </trkpt>
      <trkpt lat="59.4593187" lon="17.8063475">
        <ele>31.8607</ele>
        <time>2012-03-20T20:23:38Z</time>
      </trkpt>
      <trkpt lat="59.4592482" lon="17.806335">
        <ele>30.8995</ele>
        <time>2012-03-20T20:23:41Z</time>
      </trkpt>
      <trkpt lat="59.459112" lon="17.8062909">
        <ele>30.4188</ele>
        <time>2012-03-20T20:23:47Z</time>
      </trkpt>
      <trkpt lat="59.459025" lon="17.8061547">
        <ele>30.4188</ele>
        <time>2012-03-20T20:23:52Z</time>
      </trkpt>
      <trkpt lat="59.4590038" lon="17.8059032">
        <ele>32.3416</ele>
        <time>2012-03-20T20:23:58Z</time>
      </trkpt>
      <trkpt lat="59.4590118" lon="17.8058677">
        <ele>32.8223</ele>
        <time>2012-03-20T20:23:59Z</time>
      </trkpt>
      <trkpt lat="59.4590043" lon="17.8055639">
        <ele>33.7834</ele>
        <time>2012-03-20T20:24:06Z</time>
      </trkpt>
      <trkpt lat="59.4590437" lon="17.8052683">
        <ele>32.8223</ele>
        <time>2012-03-20T20:24:13Z</time>
      </trkpt>
      <trkpt lat="59.4590975" lon="17.8051675">
        <ele>33.3029</ele>
        <time>2012-03-20T20:24:17Z</time>
      </trkpt>
      <trkpt lat="59.4591344" lon="17.8049586">
        <ele>32.3416</ele>
        <time>2012-03-20T20:24:23Z</time>
      </trkpt>
      <trkpt lat="59.4591385" lon="17.804736">
        <ele>30.8995</ele>
        <time>2012-03-20T20:24:28Z</time>
      </trkpt>
      <trkpt lat="59.4591462" lon="17.8046526">
        <ele>30.4188</ele>
        <time>2012-03-20T20:24:30Z</time>
      </trkpt>
      <trkpt lat="59.4590607" lon="17.8045214">
        <ele>28.4962</ele>
        <time>2012-03-20T20:24:36Z</time>
      </trkpt>
      <trkpt lat="59.4589969" lon="17.8044695">
        <ele>27.5349</ele>
        <time>2012-03-20T20:24:39Z</time>
      </trkpt>
      <trkpt lat="59.4589343" lon="17.8042464">
        <ele>32.3416</ele>
        <time>2012-03-20T20:24:44Z</time>
      </trkpt>
      <trkpt lat="59.458938" lon="17.8042205">
        <ele>32.3416</ele>
        <time>2012-03-20T20:24:47Z</time>
      </trkpt>
      <trkpt lat="59.4589504" lon="17.8042185">
        <ele>32.3416</ele>
        <time>2012-03-20T20:24:48Z</time>
      </trkpt>
    </trkseg>
  </trk>
</gpx>